createdAt,value
2018-03-06T00:13:42.074Z,27.10
2018-03-06T00:16:09.561Z,28.10
2018-03-06T00:18:37.068Z,32.70
2018-03-06T00:21:04.552Z,39.80
2018-03-06T00:23:32.053Z,45.50
2018-03-06T00:25:59.533Z,51.30
2018-03-06T00:28:28.049Z,57.40
2018-03-06T00:30:55.533Z,57.30
2018-03-06T00:33:23.064Z,59.30
2018-03-06T00:35:50.539Z,61.20
2018-03-06T00:38:18.049Z,62.20
2018-03-06T00:40:46.288Z,63.80
2018-03-06T00:43:13.761Z,63.60
2018-03-06T00:45:41.245Z,65.40
2018-03-06T00:48:08.712Z,66.20
2018-03-06T00:50:36.197Z,66.40
2018-03-06T00:53:03.687Z,66.90
2018-03-06T00:55:32.693Z,67.60
2018-03-06T00:58:00.934Z,67.80
2018-03-06T01:00:28.441Z,67.70
2018-03-06T01:02:55.910Z,67.80
2018-03-06T01:05:23.398Z,68.60
2018-03-06T01:07:50.868Z,68.80
2018-03-06T01:10:18.457Z,68.80
2018-03-06T01:12:46.697Z,69.40
2018-03-06T01:15:14.196Z,69.40
2018-03-06T01:17:42.428Z,69.90
2018-03-06T01:20:09.918Z,69.90
2018-03-06T01:22:37.388Z,69.90
2018-03-06T01:25:05.644Z,70.60
2018-03-06T01:27:34.621Z,70.60
2018-03-06T01:30:02.128Z,70.60
2018-03-06T01:32:29.610Z,70.60
2018-03-06T01:34:57.113Z,70.90
2018-03-06T01:37:24.597Z,71.20
2018-03-06T01:39:52.181Z,71.50
2018-03-06T01:42:19.660Z,71.60
2018-03-06T01:44:47.149Z,71.80
2018-03-06T01:47:15.428Z,72.90
2018-03-06T01:49:43.692Z,72.20
2018-03-06T01:52:11.169Z,72.00
2018-03-06T01:54:39.432Z,72.20
2018-03-06T01:57:06.913Z,72.20
2018-03-06T01:59:34.408Z,71.90
2018-03-06T02:02:01.881Z,72.90
2018-03-06T02:04:29.380Z,72.90
2018-03-06T02:06:57.622Z,72.90
2018-03-06T02:09:25.880Z,73.10
2018-03-06T02:11:53.361Z,72.50
2018-03-06T02:14:21.707Z,72.90
2018-03-06T02:16:49.213Z,73.10
2018-03-06T02:19:17.469Z,72.70
2018-03-06T02:21:44.942Z,72.70
2018-03-06T02:24:12.437Z,72.80
2018-03-06T02:26:39.908Z,72.50
2018-03-06T02:29:07.404Z,72.50
2018-03-06T02:31:34.886Z,72.60
2018-03-06T02:34:03.162Z,72.20
2018-03-06T02:36:31.409Z,72.50
2018-03-06T02:38:58.915Z,72.50
2018-03-06T02:41:26.383Z,72.10
2018-03-06T02:43:53.874Z,72.00
2018-03-06T02:46:21.345Z,72.10
2018-03-06T02:48:50.357Z,72.40
2018-03-06T02:51:18.591Z,72.20
2018-03-06T02:53:46.065Z,72.10
2018-03-06T02:56:13.566Z,72.20
2018-03-06T02:58:41.162Z,72.40
2018-03-06T03:01:09.429Z,72.30
2018-03-06T03:03:36.919Z,72.30
2018-03-06T03:06:04.421Z,72.40
2018-03-06T03:08:31.895Z,72.10
2018-03-06T03:10:59.393Z,72.20
2018-03-06T03:13:26.968Z,72.00
2018-03-06T03:15:54.468Z,72.60
2018-03-06T03:18:21.941Z,72.60
2018-03-06T03:20:50.206Z,72.70
2018-03-06T03:23:17.768Z,72.50
2018-03-06T03:25:45.269Z,73.20
2018-03-06T03:28:12.736Z,72.40
2018-03-06T03:30:40.229Z,72.80
2018-03-06T03:33:07.712Z,73.10
2018-03-06T03:35:35.964Z,73.10
2018-03-06T03:38:03.449Z,73.00
2018-03-06T03:40:31.719Z,73.30
2018-03-06T03:42:59.968Z,73.10
2018-03-06T03:45:28.274Z,73.50
2018-03-06T03:47:56.513Z,72.60
2018-03-06T03:50:24.008Z,72.50
2018-03-06T03:52:52.253Z,72.90
2018-03-06T03:55:19.748Z,72.90
2018-03-06T03:57:47.332Z,73.40
2018-03-06T04:00:14.827Z,73.00
2018-03-06T04:02:42.300Z,73.10
2018-03-06T04:05:09.812Z,73.00
2018-03-06T04:07:37.344Z,73.00
2018-03-06T04:10:04.836Z,73.10
2018-03-06T04:12:32.308Z,73.30
2018-03-06T04:14:59.801Z,73.10
2018-03-06T04:17:28.050Z,73.10
2018-03-06T04:19:55.539Z,73.10
2018-03-06T04:22:23.776Z,73.40
2018-03-06T04:24:51.273Z,73.50
2018-03-06T04:27:19.505Z,73.10
2018-03-06T04:29:47.004Z,73.20
2018-03-06T04:32:15.245Z,73.10
2018-03-06T04:34:42.730Z,73.90
2018-03-06T04:37:10.210Z,73.10
2018-03-06T04:39:37.692Z,73.40
2018-03-06T04:42:05.175Z,73.10
2018-03-06T04:44:32.669Z,73.20
2018-03-06T04:47:00.901Z,73.30
2018-03-06T04:49:28.434Z,73.40
2018-03-06T04:51:55.912Z,73.20
2018-03-06T04:54:23.413Z,73.50
2018-03-06T04:56:51.644Z,73.50
2018-03-06T04:59:19.141Z,73.50
2018-03-06T05:01:47.372Z,73.60
2018-03-06T05:04:14.846Z,73.50
2018-03-06T05:06:42.341Z,73.80
2018-03-06T05:09:10.588Z,73.80
2018-03-06T05:11:38.093Z,73.70
2018-03-06T05:14:05.565Z,73.80
2018-03-06T05:16:33.053Z,74.00
2018-03-06T05:19:00.516Z,74.30
2018-03-06T05:21:28.013Z,74.10
2018-03-06T05:23:55.477Z,74.50
2018-03-06T05:26:22.964Z,74.70
2018-03-06T05:28:50.449Z,74.80
2018-03-06T05:31:17.966Z,74.80
2018-03-06T05:33:45.448Z,75.10
2018-03-06T05:36:12.952Z,75.20
2018-03-06T05:38:40.424Z,75.10
2018-03-06T05:41:07.920Z,75.00
2018-03-06T05:43:35.397Z,75.30
2018-03-06T05:46:02.883Z,75.00
2018-03-06T05:48:30.416Z,75.50
2018-03-06T05:50:57.911Z,75.40
2018-03-06T05:53:25.380Z,75.60
2018-03-06T05:55:52.872Z,75.30
2018-03-06T05:58:20.357Z,75.40
2018-03-06T06:00:48.624Z,75.60
2018-03-06T06:03:16.113Z,75.50
2018-03-06T06:05:43.605Z,75.60
2018-03-06T06:08:11.095Z,75.30
2018-03-06T06:10:38.603Z,75.30
2018-03-06T06:13:06.076Z,75.00
2018-03-06T06:15:33.590Z,75.30
2018-03-06T06:18:01.817Z,75.50
2018-03-06T06:20:29.306Z,75.50
2018-03-06T06:22:56.769Z,75.50
2018-03-06T06:25:25.029Z,76.30
2018-03-06T06:27:52.493Z,75.40
2018-03-06T06:30:19.991Z,75.20
2018-03-06T06:32:47.467Z,75.20
2018-03-06T06:35:14.940Z,75.20
2018-03-06T06:37:42.424Z,74.90
2018-03-06T06:40:10.722Z,75.10
2018-03-06T06:42:38.953Z,75.20
2018-03-06T06:45:06.433Z,75.10
2018-03-06T06:47:33.904Z,74.70
2018-03-06T06:50:02.151Z,74.60
2018-03-06T06:52:29.617Z,74.70
2018-03-06T06:54:57.116Z,74.60
2018-03-06T06:57:24.596Z,74.40
2018-03-06T06:59:52.058Z,74.40
2018-03-06T07:02:19.539Z,74.10
2018-03-06T07:04:47.010Z,73.80
2018-03-06T07:07:14.492Z,73.90
2018-03-06T07:09:42.760Z,73.80
2018-03-06T07:12:11.001Z,73.70
2018-03-06T07:14:38.466Z,73.70
2018-03-06T07:17:05.948Z,73.40
2018-03-06T07:19:33.436Z,73.10
2018-03-06T07:22:00.912Z,73.00
2018-03-06T07:24:29.154Z,72.20
2018-03-06T07:26:57.409Z,72.30
2018-03-06T07:29:24.881Z,71.80
2018-03-06T07:31:52.398Z,72.00
2018-03-06T07:34:20.612Z,72.40
2018-03-06T07:36:48.095Z,72.30
2018-03-06T07:39:15.558Z,72.90
2018-03-06T07:41:43.819Z,71.50
2018-03-06T07:44:11.388Z,71.50
2018-03-06T07:46:38.872Z,71.50
2018-03-06T07:49:06.345Z,71.10
2018-03-06T07:51:33.828Z,70.00
2018-03-06T07:54:01.297Z,70.00
2018-03-06T07:56:28.768Z,69.10
2018-03-06T07:58:56.234Z,69.00
2018-03-06T08:01:24.489Z,69.20
2018-03-06T08:03:51.982Z,68.40
2018-03-06T08:06:20.221Z,67.80
2018-03-06T08:08:47.729Z,67.70
2018-03-06T08:11:15.200Z,67.40
2018-03-06T08:13:42.655Z,66.70
2018-03-06T08:16:10.173Z,66.10
2018-03-06T08:18:37.625Z,66.10
2018-03-06T08:21:05.108Z,65.70
2018-03-06T08:23:32.584Z,65.20
2018-03-06T08:26:00.076Z,65.20
2018-03-06T08:28:27.532Z,64.60
2018-03-06T08:30:55.007Z,64.40
2018-03-06T08:33:22.464Z,64.30
2018-03-06T08:35:49.952Z,63.50
2018-03-06T08:38:17.445Z,63.00
2018-03-06T08:40:44.884Z,62.70
2018-03-06T08:43:13.121Z,61.40
2018-03-06T08:45:40.597Z,61.40
2018-03-06T08:48:08.062Z,61.10
2018-03-06T08:50:35.547Z,60.90
2018-03-06T08:53:03.779Z,60.60
2018-03-06T08:55:31.260Z,60.60
2018-03-06T08:57:58.736Z,60.90
2018-03-06T09:00:26.955Z,59.40
2018-03-06T09:02:54.452Z,59.30
2018-03-06T09:05:22.698Z,60.10
2018-03-06T09:07:50.180Z,59.40
2018-03-06T09:10:17.636Z,59.40
2018-03-06T09:12:45.885Z,59.50
2018-03-06T09:15:13.360Z,59.50
2018-03-06T09:17:41.175Z,59.60
2018-03-06T09:20:08.682Z,59.30
2018-03-06T09:22:36.926Z,59.30
2018-03-06T09:25:04.440Z,59.20
2018-03-06T09:27:31.927Z,58.90
2018-03-06T09:29:59.384Z,59.20
2018-03-06T09:32:26.862Z,58.80
2018-03-06T09:34:54.342Z,58.90
2018-03-06T09:37:22.580Z,58.70
2018-03-06T09:39:50.063Z,58.70
2018-03-06T09:42:17.536Z,58.90
2018-03-06T09:44:45.795Z,59.30
2018-03-06T09:47:13.496Z,59.20
2018-03-06T09:49:41.005Z,59.50
2018-03-06T09:52:08.495Z,59.10
2018-03-06T09:54:36.078Z,59.20
2018-03-06T09:57:03.556Z,58.60
2018-03-06T09:59:31.038Z,58.00
2018-03-06T10:01:58.520Z,57.60
2018-03-06T10:04:26.783Z,57.80
2018-03-06T10:06:55.043Z,57.70
2018-03-06T10:09:22.521Z,57.70
2018-03-06T10:11:50.775Z,57.20
2018-03-06T10:14:18.237Z,57.10
2018-03-06T10:16:45.746Z,56.80
2018-03-06T10:19:13.212Z,56.70
2018-03-06T10:21:40.698Z,56.50
2018-03-06T10:24:08.170Z,56.10
2018-03-06T10:26:35.662Z,55.80
2018-03-06T10:29:03.145Z,55.50
2018-03-06T10:31:31.394Z,55.40
2018-03-06T10:33:58.873Z,55.30
2018-03-06T10:36:26.399Z,55.20
2018-03-06T10:38:54.617Z,54.50
2018-03-06T10:41:22.112Z,54.50
2018-03-06T10:43:50.376Z,54.40
2018-03-06T10:46:18.653Z,54.10
2018-03-06T10:48:46.136Z,54.10
2018-03-06T10:51:14.618Z,53.70
2018-03-06T10:53:42.857Z,54.00
2018-03-06T10:56:10.377Z,53.90
2018-03-06T10:58:37.859Z,53.90
2018-03-06T11:01:05.332Z,53.90
2018-03-06T11:03:32.902Z,53.80
2018-03-06T11:06:00.370Z,53.50
2018-03-06T11:08:28.610Z,53.50
2018-03-06T11:10:56.079Z,53.50
2018-03-06T11:13:23.562Z,52.90
2018-03-06T11:15:51.779Z,51.70
2018-03-06T11:18:19.263Z,51.60
2018-03-06T11:20:46.741Z,51.50
2018-03-06T11:23:14.223Z,51.50
2018-03-06T11:25:41.694Z,50.80
2018-03-06T11:28:09.177Z,50.60
2018-03-06T11:30:36.635Z,50.40
2018-03-06T11:33:04.118Z,50.00
2018-03-06T11:35:31.587Z,49.50
2018-03-06T11:37:59.086Z,49.80
2018-03-06T11:40:26.544Z,49.70
2018-03-06T11:42:54.041Z,49.90
2018-03-06T11:45:21.516Z,49.30
2018-03-06T11:47:49.766Z,49.30
2018-03-06T11:50:17.220Z,49.30
2018-03-06T11:52:44.743Z,49.80
2018-03-06T11:55:12.200Z,49.60
2018-03-06T11:57:39.673Z,50.20
2018-03-06T12:00:07.133Z,49.60
2018-03-06T12:02:34.629Z,49.60
2018-03-06T12:05:02.201Z,49.40
2018-03-06T12:07:30.462Z,50.20
2018-03-06T12:09:57.942Z,50.10
2018-03-06T12:12:26.184Z,50.20
2018-03-06T12:14:53.645Z,50.20
2018-03-06T12:17:21.156Z,50.00
2018-03-06T12:19:48.613Z,50.00
2018-03-06T12:22:16.098Z,50.20
2018-03-06T12:24:43.583Z,50.40
2018-03-06T12:27:11.063Z,50.00
2018-03-06T12:29:39.289Z,49.50
2018-03-06T12:32:06.768Z,49.50
2018-03-06T12:34:34.238Z,49.20
2018-03-06T12:37:02.505Z,48.90
2018-03-06T12:39:29.988Z,48.80
2018-03-06T12:41:57.492Z,48.70
2018-03-06T12:44:24.960Z,48.60
2018-03-06T12:46:52.453Z,48.00
2018-03-06T12:49:20.721Z,46.50
2018-03-06T12:51:48.191Z,46.40
2018-03-06T12:54:16.798Z,45.60
2018-03-06T12:56:44.290Z,45.60
2018-03-06T12:59:11.773Z,45.30
2018-03-06T13:01:40.012Z,45.90
2018-03-06T13:04:07.510Z,45.70
2018-03-06T13:06:35.738Z,44.80
2018-03-06T13:09:03.214Z,44.80
2018-03-06T13:11:30.696Z,45.00
2018-03-06T13:13:58.186Z,44.60
2018-03-06T13:16:25.667Z,45.00
2018-03-06T13:18:53.152Z,44.90
2018-03-06T13:21:21.395Z,45.20
2018-03-06T13:23:48.900Z,45.00
2018-03-06T13:26:17.162Z,43.80
2018-03-06T13:28:44.645Z,43.20
2018-03-06T13:31:12.873Z,43.50
2018-03-06T13:33:40.364Z,43.40
2018-03-06T13:36:07.933Z,43.10
2018-03-06T13:38:36.758Z,43.20
2018-03-06T13:41:04.234Z,43.10
2018-03-06T13:43:31.709Z,43.00
2018-03-06T13:45:59.193Z,43.20
2018-03-06T13:48:27.441Z,43.40
2018-03-06T13:50:54.917Z,43.40
2018-03-06T13:53:22.408Z,42.80
2018-03-06T13:55:49.914Z,42.10
2018-03-06T13:58:17.419Z,42.50
2018-03-06T14:00:44.884Z,42.20
2018-03-06T14:03:12.393Z,41.70
2018-03-06T14:05:39.869Z,41.80
2018-03-06T14:08:08.163Z,41.50
2018-03-06T14:10:36.393Z,41.30
2018-03-06T14:13:03.870Z,41.30
2018-03-06T14:15:31.355Z,41.20
2018-03-06T14:17:59.597Z,40.70
2018-03-06T14:20:28.581Z,40.60
2018-03-06T14:22:56.061Z,40.60
2018-03-06T14:25:24.306Z,39.60
2018-03-06T14:27:51.792Z,39.70
2018-03-06T14:30:20.037Z,38.70
2018-03-06T14:32:47.564Z,38.60
2018-03-06T14:35:15.122Z,37.70
2018-03-06T14:37:42.681Z,37.90
2018-03-06T14:40:10.140Z,37.20
2018-03-06T14:42:37.698Z,37.30
2018-03-06T14:45:05.212Z,37.50
2018-03-06T14:47:32.696Z,38.10
2018-03-06T14:50:00.168Z,37.80
2018-03-06T14:52:27.641Z,37.80
2018-03-06T14:54:55.113Z,38.40
2018-03-06T14:57:22.705Z,38.50
2018-03-06T14:59:50.945Z,39.80
2018-03-06T15:02:18.427Z,39.30
2018-03-06T15:04:46.681Z,40.20
2018-03-06T15:07:14.148Z,40.20
2018-03-06T15:09:41.628Z,40.40
2018-03-06T15:12:09.945Z,41.50
2018-03-06T15:14:37.465Z,41.40
2018-03-06T15:17:05.081Z,41.30
2018-03-06T15:19:32.573Z,41.50
2018-03-06T15:22:00.044Z,41.90
2018-03-06T15:24:28.307Z,41.10
2018-03-06T15:26:55.767Z,41.10
2018-03-06T15:29:23.244Z,41.80
2018-03-06T15:31:51.481Z,42.50
2018-03-06T15:34:18.999Z,42.50
2018-03-06T15:36:46.469Z,43.00
2018-03-06T15:39:14.006Z,43.30
2018-03-06T15:41:41.509Z,43.30
2018-03-06T15:44:08.992Z,43.40
2018-03-06T15:46:37.237Z,44.00
2018-03-06T15:49:04.739Z,44.00
2018-03-06T15:51:32.977Z,44.30
2018-03-06T15:54:00.469Z,44.30
2018-03-06T15:56:28.710Z,44.40
2018-03-06T15:58:56.201Z,44.30
2018-03-06T16:01:24.440Z,45.00
2018-03-06T16:03:51.921Z,44.80
2018-03-06T16:06:20.159Z,45.00
2018-03-06T16:08:47.652Z,44.90
2018-03-06T16:11:15.136Z,45.20
2018-03-06T16:13:43.413Z,45.60
2018-03-06T16:16:11.649Z,46.00
2018-03-06T16:18:39.132Z,45.90
2018-03-06T16:21:07.365Z,46.60
2018-03-06T16:23:34.850Z,46.50
2018-03-06T16:26:03.088Z,46.60
2018-03-06T16:28:30.576Z,46.60
2018-03-06T16:30:58.046Z,46.60
2018-03-06T16:33:25.606Z,46.90
2018-03-06T16:35:53.840Z,47.50
2018-03-06T16:38:21.334Z,46.90
2018-03-06T16:40:48.810Z,47.10
2018-03-06T16:43:17.066Z,47.60
2018-03-06T16:45:44.527Z,47.50
2018-03-06T16:48:12.014Z,47.70
2018-03-06T16:50:39.486Z,47.90
2018-03-06T16:53:06.977Z,48.10
2018-03-06T16:55:34.452Z,48.30
2018-03-06T16:58:01.939Z,48.40
2018-03-06T17:00:29.427Z,48.60
2018-03-06T17:02:56.928Z,48.40
2018-03-06T17:05:24.402Z,48.80
2018-03-06T17:07:52.637Z,49.10
2018-03-06T17:10:20.155Z,49.10
2018-03-06T17:12:48.370Z,49.40
2018-03-06T17:15:15.873Z,49.40
2018-03-06T17:17:43.531Z,49.60
2018-03-06T17:20:11.884Z,50.20
2018-03-06T17:22:40.133Z,50.30
2018-03-06T17:25:07.636Z,50.30
2018-03-06T17:27:35.105Z,50.10
2018-03-06T17:30:02.613Z,50.50
2018-03-06T17:32:30.094Z,50.50
2018-03-06T17:34:57.581Z,50.30
2018-03-06T17:37:25.062Z,50.90
2018-03-06T17:39:52.546Z,51.00
2018-03-06T17:42:20.008Z,51.10
2018-03-06T17:44:48.278Z,51.50
2018-03-06T17:47:15.908Z,51.50
2018-03-06T17:49:43.517Z,51.80
2018-03-06T17:52:11.785Z,52.20
2018-03-06T17:54:40.057Z,52.60
2018-03-06T17:57:08.297Z,52.60
2018-03-06T17:59:35.777Z,52.50
2018-03-06T18:02:03.309Z,52.80
2018-03-06T18:04:30.763Z,52.80
2018-03-06T18:06:58.254Z,53.40
2018-03-06T18:09:25.739Z,53.40
2018-03-06T18:11:53.226Z,53.50
2018-03-06T18:14:21.153Z,53.90
2018-03-06T18:16:49.384Z,54.20
2018-03-06T18:19:16.899Z,54.10
2018-03-06T18:21:44.373Z,54.40
2018-03-06T18:24:11.862Z,55.50
2018-03-06T18:26:39.374Z,55.50
2018-03-06T18:33:51.220Z,55.90
2018-03-06T18:36:18.691Z,55.90
2018-03-06T18:38:46.177Z,55.90
2018-03-06T18:41:13.644Z,56.10
2018-03-06T18:43:41.913Z,56.50
2018-03-06T18:46:09.384Z,56.40
2018-03-06T18:48:37.626Z,56.80
2018-03-06T18:51:15.545Z,56.70
2018-03-06T18:53:43.010Z,57.00
2018-03-06T18:56:10.497Z,57.20
2018-03-06T18:58:37.975Z,57.30
2018-03-06T19:04:17.240Z,57.70
2018-03-06T19:07:06.424Z,58.10
2018-03-06T19:09:33.934Z,58.10
2018-03-06T19:12:01.502Z,58.10
2018-03-06T19:14:29.881Z,58.10
2018-03-06T19:16:57.440Z,58.00
2018-03-06T19:19:24.904Z,58.10
2018-03-06T19:21:52.400Z,58.60
2018-03-06T19:24:20.265Z,58.60
2018-03-06T19:26:47.749Z,58.70
2018-03-06T19:29:15.981Z,59.10
2018-03-06T19:31:43.469Z,59.10
2018-03-06T19:34:11.739Z,59.90
2018-03-06T19:36:40.012Z,59.50
2018-03-06T19:39:07.477Z,59.30
2018-03-06T19:41:34.962Z,59.50
2018-03-06T19:44:02.447Z,59.70
2018-03-06T19:46:29.929Z,59.60
2018-03-06T19:48:57.446Z,59.70
2018-03-06T19:51:24.913Z,59.80
2018-03-06T19:53:52.426Z,60.10
2018-03-06T19:56:19.893Z,59.40
2018-03-06T19:58:48.163Z,59.10
2018-03-06T20:01:16.406Z,59.30
2018-03-06T20:03:43.894Z,59.20
2018-03-06T20:08:38.092Z,59.20
2018-03-06T20:11:06.340Z,59.10
2018-03-06T20:13:33.826Z,59.10
2018-03-06T20:16:02.069Z,59.20
2018-03-06T20:18:29.555Z,59.10
2018-03-06T20:20:57.013Z,59.50
2018-03-06T20:23:24.526Z,59.50
2018-03-06T20:25:57.742Z,59.60
2018-03-06T20:28:25.259Z,59.60
2018-03-06T20:30:58.362Z,59.60
2018-03-06T20:33:25.847Z,59.50
2018-03-06T20:35:53.309Z,59.70
2018-03-06T20:38:26.613Z,59.60
2018-03-06T20:40:54.088Z,59.80
2018-03-06T20:43:22.365Z,60.00
2018-03-06T20:45:55.586Z,60.00
2018-03-06T20:48:23.084Z,60.10
2018-03-06T20:50:50.557Z,60.00
2018-03-06T20:53:23.601Z,59.80
2018-03-06T20:55:51.069Z,59.70
2018-03-06T20:58:18.833Z,59.70
2018-03-06T21:00:46.296Z,60.00
2018-03-06T21:03:14.165Z,59.90
2018-03-06T21:05:41.635Z,60.00
2018-03-06T21:08:09.137Z,60.90
2018-03-06T21:10:36.597Z,60.10
2018-03-06T21:13:04.137Z,60.10
2018-03-06T21:15:31.602Z,60.40
2018-03-06T21:17:59.069Z,60.40
2018-03-06T21:20:26.561Z,60.60
2018-03-06T21:22:54.049Z,60.80
2018-03-06T21:25:21.530Z,60.70
2018-03-06T21:27:49.012Z,61.10
2018-03-06T21:30:16.521Z,61.50
2018-03-06T21:32:43.999Z,62.40
2018-03-06T21:35:12.259Z,63.10
2018-03-06T21:37:40.489Z,63.60
2018-03-06T21:40:08.006Z,63.50
2018-03-06T21:42:36.236Z,63.70
2018-03-06T21:45:03.837Z,63.50
2018-03-06T21:47:32.061Z,64.50
2018-03-06T21:49:59.527Z,64.30
2018-03-06T21:52:27.017Z,64.50
2018-03-06T21:54:54.511Z,64.40
2018-03-06T21:57:22.021Z,64.90
2018-03-06T21:59:49.488Z,64.80
2018-03-06T22:02:16.969Z,67.60
2018-03-06T22:04:44.454Z,71.10
2018-03-06T22:07:11.951Z,72.40
2018-03-06T22:09:40.176Z,74.60
2018-03-06T22:12:07.654Z,74.60
2018-03-06T22:14:35.121Z,77.20
2018-03-06T22:17:02.617Z,78.70
2018-03-06T22:19:30.177Z,78.60
2018-03-06T22:21:57.645Z,78.70
2018-03-06T22:24:25.891Z,79.60
2018-03-06T22:26:53.355Z,79.60
2018-03-06T22:29:20.837Z,80.10
2018-03-06T22:31:49.277Z,80.00
2018-03-06T22:34:16.756Z,79.20
2018-03-06T22:36:44.220Z,80.00
2018-03-06T22:39:11.701Z,78.90
2018-03-06T22:41:39.951Z,79.40
2018-03-06T22:44:07.432Z,79.40
2018-03-06T22:46:35.665Z,79.40
2018-03-06T22:49:03.148Z,79.40
2018-03-06T22:51:30.622Z,79.40
2018-03-06T22:53:58.988Z,79.50
2018-03-06T22:56:26.455Z,79.50
2018-03-06T22:58:54.699Z,79.40
2018-03-06T23:01:22.931Z,79.20
2018-03-06T23:03:50.423Z,79.20
2018-03-06T23:06:17.898Z,79.10
2018-03-06T23:08:46.148Z,78.60
2018-03-06T23:11:13.634Z,79.20
2018-03-06T23:13:41.869Z,79.30
2018-03-06T23:16:09.353Z,79.30
2018-03-06T23:18:36.813Z,79.40
2018-03-06T23:21:04.301Z,78.90
2018-03-06T23:23:31.802Z,79.70
2018-03-06T23:25:59.295Z,79.00
2018-03-06T23:28:27.532Z,78.80
2018-03-06T23:30:55.021Z,78.60
2018-03-06T23:33:22.482Z,78.20
2018-03-06T23:35:49.961Z,78.60
2018-03-06T23:38:17.425Z,78.80
2018-03-06T23:40:44.904Z,78.80
2018-03-06T23:43:12.363Z,78.50
2018-03-06T23:45:39.867Z,78.50
2018-03-06T23:48:07.417Z,78.50
2018-03-06T23:50:34.904Z,78.10
2018-03-06T23:53:03.134Z,78.60
2018-03-06T23:55:30.609Z,78.60
2018-03-06T23:57:58.071Z,78.90
